CST,Max TemperatureF,Mean TemperatureF,Min TemperatureF,Max Dew PointF,MeanDew PointF,Min DewpointF,Max Humidity, Mean Humidity, Min Humidity, Max Sea Level PressureIn, Mean Sea Level PressureIn, Min Sea Level PressureIn, Max VisibilityMiles, Mean VisibilityMiles, Min VisibilityMiles, Max Wind SpeedMPH, Mean Wind SpeedMPH, Max Gust SpeedMPH,PrecipitationIn, CloudCover, Events, WindDirDegrees
2011-11-1,56,45,34,41,36,33,100,81,43,30.00,29.94,29.86,10,8,5,12,4,16,0.01,5,Rain,186
2011-11-2,44,40,34,43,38,32,100,92,72,30.15,30.07,29.97,10,10,10,9,5,,0.05,6,Rain,345
2011-11-3,47,35,23,33,27,20,100,81,34,30.24,30.19,30.15,10,10,1,10,3,,0.00,0,,312
2011-11-4,51,34,17,31,21,16,100,70,25,30.30,30.23,30.16,10,10,7,8,2,,0.00,0,,183
2011-11-5,51,40,30,35,32,26,100,72,49,30.17,30.04,29.91,10,10,7,15,7,22,0.00,0,,175
2011-11-6,52,47,42,43,39,35,80,74,66,29.88,29.76,29.68,10,10,7,18,10,25,0.00,6,,194
2011-11-7,49,39,29,26,21,17,78,48,30,30.18,30.03,29.91,10,10,10,21,12,31,0.00,0,,244
2011-11-8,41,34,28,29,27,25,94,76,59,30.18,30.15,30.11,10,10,7,8,2,,0.00,2,,34
2011-11-9,33,32,31,32,30,28,100,91,80,30.10,29.88,29.72,10,7,0,18,9,25,0.00,8,Snow,359
2011-11-10,33,31,29,33,30,26,100,93,83,29.88,29.80,29.73,10,7,0,13,8,20,0.12,8,Snow,295
2011-11-11,34,26,19,28,24,20,100,81,72,29.86,29.72,29.56,10,10,3,10,6,16,0.02,4,Snow,219
2011-11-12,52,36,21,34,29,21,100,75,42,29.60,29.55,29.41,10,8,0,9,4,,0.00,1,Fog,185
2011-11-13,47,43,39,37,35,32,84,76,62,29.32,29.23,29.18,10,10,10,13,7,,0.00,4,Rain,212
2011-11-14,48,38,29,34,30,25,100,75,46,29.54,29.44,29.38,10,9,4,15,7,24,0.00,1,Rain,222
2011-11-15,49,38,28,33,28,24,88,70,49,29.65,29.57,29.51,10,10,2,16,6,31,0.00,5,Snow,224
2011-11-16,33,30,25,21,15,8,67,55,35,29.94,29.83,29.69,10,10,7,22,14,29,0.00,8,Snow,277
2011-11-17,28,24,20,17,14,11,85,68,52,30.01,29.96,29.93,10,9,2,17,11,25,0.00,7,Snow,271
2011-11-18,41,30,19,25,19,12,74,61,50,29.97,29.75,29.64,10,10,10,12,5,17,0.00,5,,187
2011-11-19,36,30,24,34,29,24,100,95,80,29.79,29.73,29.67,10,7,1,14,3,18,0.01,6,Rain-Snow,17
2011-11-20,26,23,20,26,19,16,99,85,73,30.29,30.20,29.96,10,10,10,12,6,18,0.00,8,Snow,354
2011-11-21,30,26,21,30,25,19,100,93,85,30.28,30.25,30.22,10,9,2,10,3,,0.00,8,,204
2011-11-22,33,28,23,32,29,23,100,100,96,30.24,30.10,30.01,10,6,0,10,3,,0.13,8,Fog,173
2011-11-23,34,31,28,35,32,28,100,100,99,30.06,30.03,30.01,4,2,1,14,7,17,0.04,8,,237
2011-11-24,49,42,35,38,37,35,100,89,63,30.01,29.90,29.78,10,4,2,13,8,20,0.00,5,,216
2011-11-25,47,41,35,44,41,36,100,93,79,29.80,29.73,29.70,10,8,2,10,5,,0.00,3,,215
2011-11-26,44,39,34,44,42,35,100,100,99,29.81,29.73,29.67,10,5,1,16,3,23,0.30,8,Rain,285
2011-11-27,32,28,25,32,26,23,100,94,88,30.10,29.99,29.83,10,9,3,18,13,26,0.00,8,Snow,337
2011-11-28,32,28,23,26,24,22,100,87,67,30.10,30.04,29.97,10,10,10,10,5,16,0.01,4,,230
2011-11-29,32,24,15,27,19,15,100,75,55,30.20,30.13,30.05,10,10,10,17,9,22,0.00,1,,7
2011-11-30,38,24,10,32,16,9,100,73,30,29.99,29.91,29.86,10,9,2,12,3,16,0.00,3,Snow,247